Time;durP1;ratioP1;P1;durP2;ratioP2;P2;SDS_P1;SDS_P2;PMS_P1;PMS_P2;Temp;Humidity;BMP_temperature;BMP_pressure;BME280_temperature;BME280_humidity;BME280_pressure;Samples;Min_cycle;Max_cycle;Signal;HPM_P1;HPM_P2
2023/01/04 00:01:25;;;;;;;23.98;11.68;;;7.00;99.90;;;;;;6153730;23;20017;-79
2023/01/04 00:03:52;;;;;;;22.45;9.75;;;7.00;99.90;;;;;;6130234;23;20028;-79
2023/01/04 00:06:20;;;;;;;17.20;7.45;;;7.00;99.90;;;;;;6128789;23;20511;-79
2023/01/04 00:08:48;;;;;;;17.30;7.82;;;6.60;99.90;;;;;;6153229;23;20021;-79
2023/01/04 00:11:21;;;;;;;18.70;7.07;;;6.90;99.90;;;;;;6153097;23;20028;-81
2023/01/04 00:13:49;;;;;;;;;;;6.90;99.90;;;;;;6153537;23;20057;-81
2023/01/04 00:16:19;;;;;;;17.20;7.63;;;6.90;99.90;;;;;;6128407;23;20356;-80
2023/01/04 00:18:47;;;;;;;15.82;6.95;;;6.80;99.90;;;;;;6153171;23;20025;-80
2023/01/04 00:21:20;;;;;;;18.23;8.48;;;6.80;99.90;;;;;;6129615;23;20017;-80
2023/01/04 00:23:48;;;;;;;;;;;6.80;99.90;;;;;;6151483;23;20018;-80
2023/01/04 00:26:20;;;;;;;23.70;10.15;;;6.70;99.90;;;;;;6152015;23;20002;-80
2023/01/04 00:28:48;;;;;;;27.25;11.27;;;6.70;99.90;;;;;;6153397;23;20048;-80
2023/01/04 00:31:22;;;;;;;25.48;10.80;;;6.80;99.90;;;;;;6153796;23;20028;-80
2023/01/04 00:33:52;;;;;;;22.50;10.05;;;6.50;99.90;;;;;;6152660;23;20032;-80
2023/01/04 00:36:19;;;;;;;19.52;8.98;;;6.70;99.90;;;;;;6151977;23;20029;-80
2023/01/04 00:38:46;;;;;;;19.65;9.60;;;6.60;99.90;;;;;;6151187;23;20465;-80
2023/01/04 00:41:14;;;;;;;20.90;8.60;;;6.60;99.90;;;;;;6128609;23;20017;-80
2023/01/04 00:44:03;;;;;;;22.20;9.35;;;5.90;99.90;;;;;;6130672;23;20440;-80
2023/01/04 00:46:31;;;;;;;21.85;9.48;;;6.50;99.90;;;;;;6155799;23;20326;-79
2023/01/04 00:48:59;;;;;;;29.27;11.50;;;6.50;99.90;;;;;;6130591;23;20564;-79
2023/01/04 00:51:28;;;;;;;20.45;9.63;;;6.50;99.90;;;;;;6129936;23;20068;-80
2023/01/04 00:53:58;;;;;;;23.42;9.68;;;6.50;99.90;;;;;;6127281;23;20132;-80
2023/01/04 00:56:28;;;;;;;20.60;9.20;;;6.40;99.90;;;;;;6129727;23;20022;-80
2023/01/04 00:58:57;;;;;;;23.30;9.73;;;6.40;99.90;;;;;;6129997;23;20479;-79
2023/01/04 01:01:26;;;;;;;25.90;9.60;;;6.40;99.90;;;;;;6153086;23;20017;-80
2023/01/04 01:04:00;;;;;;;24.73;10.30;;;6.30;99.90;;;;;;6152651;23;20383;-80
2023/01/04 01:06:30;;;;;;;21.45;10.10;;;6.30;99.90;;;;;;6153244;23;20104;-80
2023/01/04 01:08:57;;;;;;;25.17;10.52;;;6.30;99.90;;;;;;6153936;23;20077;-79
2023/01/04 01:11:25;;;;;;;27.42;10.60;;;6.30;99.90;;;;;;6129838;23;20108;-79
2023/01/04 01:13:52;;;;;;;28.35;10.88;;;6.20;99.90;;;;;;6129183;23;20025;-79
2023/01/04 01:16:22;;;;;;;33.20;11.82;;;6.10;99.90;;;;;;6154442;23;20029;-79
2023/01/04 01:19:09;;;;;;;29.15;11.43;;;6.20;99.90;;;;;;6155080;23;20390;-79
2023/01/04 01:21:37;;;;;;;24.77;10.20;;;6.10;99.90;;;;;;6130878;23;20028;-79
2023/01/04 01:24:05;;;;;;;27.20;10.93;;;6.10;99.90;;;;;;6154753;23;20101;-79
2023/01/04 01:26:32;;;;;;;22.17;9.82;;;6.00;99.90;;;;;;6130525;23;20045;-79
2023/01/04 01:28:59;;;;;;;23.05;9.80;;;5.90;99.90;;;;;;6154779;23;20030;-79
2023/01/04 01:31:28;;;;;;;24.13;9.77;;;5.90;99.90;;;;;;6154617;23;20334;-79
2023/01/04 01:33:56;;;;;;;23.77;9.70;;;5.90;99.90;;;;;;6130640;23;20025;-80
2023/01/04 01:36:25;;;;;;;23.15;9.65;;;5.90;99.90;;;;;;6128034;23;20021;-80
2023/01/04 01:38:53;;;;;;;22.70;9.93;;;5.90;99.90;;;;;;6154539;23;20057;-80
2023/01/04 01:41:26;;;;;;;21.27;8.60;;;5.80;99.90;;;;;;6155564;23;20035;-79
2023/01/04 01:44:05;;;;;;;20.70;8.60;;;5.80;99.90;;;;;;6154851;23;20032;-79
2023/01/04 01:46:36;;;;;;;22.58;9.13;;;5.80;99.90;;;;;;6130454;23;20033;-81
2023/01/04 01:49:22;;;;;;;27.35;9.82;;;5.80;99.90;;;;;;6153068;23;20052;-79
2023/01/04 01:51:52;;;;;;;17.02;7.55;;;5.80;99.90;;;;;;6152208;23;20030;-80
2023/01/04 01:54:25;;;;;;;20.48;8.32;;;5.70;99.90;;;;;;6129724;23;20028;-80
2023/01/04 01:56:56;;;;;;;20.90;8.38;;;5.70;99.90;;;;;;6128277;23;20022;-80
2023/01/04 01:59:23;;;;;;;17.15;7.47;;;5.70;99.90;;;;;;6148913;23;20032;-80
2023/01/04 02:01:50;;;;;;;19.35;8.73;;;5.70;99.90;;;;;;6152685;23;20052;-80
2023/01/04 02:04:18;;;;;;;22.77;8.77;;;5.60;99.90;;;;;;6154715;23;20436;-80
2023/01/04 02:06:51;;;;;;;20.17;7.47;;;5.60;99.90;;;;;;6153135;23;20485;-79
2023/01/04 02:09:20;;;;;;;22.67;8.68;;;5.50;99.90;;;;;;6128084;23;20072;-79
2023/01/04 02:11:47;;;;;;;23.50;9.90;;;5.50;99.90;;;;;;6153830;23;20024;-80
2023/01/04 02:14:28;;;;;;;21.00;8.40;;;5.50;99.90;;;;;;6129919;23;20359;-80
2023/01/04 02:17:08;;;;;;;24.40;9.10;;;5.40;99.90;;;;;;6154462;23;20393;-79
2023/01/04 02:20:13;;;;;;;21.63;8.55;;;5.30;99.90;;;;;;6151978;23;20041;-79
2023/01/04 02:23:28;;;;;;;21.67;7.43;;;5.30;99.90;;;;;;6152947;23;20027;-79
2023/01/04 02:26:16;;;;;;;23.20;10.35;;;5.20;99.90;;;;;;6108210;23;20021;-79
2023/01/04 02:29:28;;;;;;;24.25;9.23;;;5.20;99.90;;;;;;6153437;23;20021;-78
2023/01/04 02:32:00;;;;;;;24.25;9.32;;;5.20;99.90;;;;;;6104435;23;20029;-79
2023/01/04 02:34:30;;;;;;;21.77;10.05;;;5.10;99.90;;;;;;6129498;23;20409;-79
2023/01/04 02:37:25;;;;;;;27.52;10.73;;;5.10;99.90;;;;;;6151833;23;20021;-79
2023/01/04 02:40:15;;;;;;;24.48;8.60;;;5.00;99.90;;;;;;6153512;23;20351;-79
2023/01/04 02:45:52;;;;;;;28.85;9.10;;;5.00;99.90;;;;;;6152012;23;20029;-79
2023/01/04 02:51:04;;;;;;;23.73;8.88;;;4.90;99.90;;;;;;6152294;23;20071;-78
2023/01/04 02:53:38;;;;;;;19.80;8.95;;;4.90;99.90;;;;;;6127691;23;20017;-78
2023/01/04 02:56:36;;;;;;;27.10;9.20;;;4.80;99.90;;;;;;6152866;23;20017;-78
2023/01/04 02:59:18;;;;;;;27.65;9.23;;;4.80;99.90;;;;;;6154355;23;20632;-78
2023/01/04 03:08:33;;;;;;;28.10;9.85;;;4.60;99.90;;;;;;6152966;23;20397;-79
2023/01/04 03:11:01;;;;;;;28.75;10.25;;;4.60;99.90;;;;;;6181004;23;20025;-79
2023/01/04 03:13:36;;;;;;;33.63;11.23;;;4.60;99.90;;;;;;6156989;23;20115;-78
2023/01/04 03:16:12;;;;;;;28.85;12.00;;;4.60;99.90;;;;;;6130224;23;20049;-78
2023/01/04 03:18:45;;;;;;;31.88;11.02;;;4.50;99.90;;;;;;6132545;23;20064;-78
2023/01/04 03:21:14;;;;;;;29.75;10.90;;;4.50;99.90;;;;;;6156498;23;20449;-78
2023/01/04 03:36:01;;;;;;;28.23;10.07;;;4.40;99.90;;;;;;6172999;23;20035;-78
2023/01/04 03:50:41;;;;;;;29.17;10.20;;;4.20;99.90;;;;;;6149018;23;20017;-79
2023/01/04 03:53:10;;;;;;;30.80;10.30;;;4.20;99.90;;;;;;6099849;23;20453;-79
2023/01/04 03:55:39;;;;;;;29.42;11.07;;;4.20;99.90;;;;;;6148312;23;20025;-79
2023/01/04 03:58:06;;;;;;;29.42;10.95;;;4.10;99.90;;;;;;6148560;23;20024;-79
2023/01/04 04:00:34;;;;;;;25.92;10.43;;;4.10;99.90;;;;;;6147420;23;20092;-79
2023/01/04 04:03:08;;;;;;;31.52;10.95;;;4.00;99.90;;;;;;6123387;23;20458;-79
2023/01/04 04:08:27;;;;;;;33.22;11.18;;;4.00;99.90;;;;;;6148690;23;20093;-79
2023/01/04 04:13:50;;;;;;;34.28;12.45;;;3.90;99.90;;;;;;6151940;23;20025;-79
2023/01/04 04:16:17;;;;;;;32.63;12.85;;;3.90;99.90;;;;;;6127609;23;20025;-79
2023/01/04 04:18:46;;;;;;;33.33;11.30;;;3.80;99.90;;;;;;6152447;23;20104;-79
2023/01/04 04:21:14;;;;;;;33.72;11.75;;;4.10;99.90;;;;;;6152708;23;20330;-79
2023/01/04 04:23:42;;;;;;;31.55;11.63;;;3.80;99.90;;;;;;6154600;23;20018;-79
2023/01/04 04:26:12;;;;;;;32.60;11.50;;;3.70;99.90;;;;;;6130336;23;20696;-79
2023/01/04 04:28:40;;;;;;;35.85;11.93;;;3.70;99.90;;;;;;6129866;23;20791;-79
2023/01/04 04:31:08;;;;;;;38.70;12.43;;;3.60;99.90;;;;;;6130810;23;20025;-79
2023/01/04 04:33:36;;;;;;;36.95;13.30;;;3.20;99.90;;;;;;6154974;23;20109;-79
2023/01/04 04:36:04;;;;;;;48.45;16.13;;;3.60;99.90;;;;;;6153434;23;20480;-79
2023/01/04 04:38:32;;;;;;;49.47;18.33;;;3.50;99.90;;;;;;6148938;23;20017;-79
2023/01/04 04:43:53;;;;;;;40.17;15.73;;;3.50;99.90;;;;;;6151965;23;20018;-79
2023/01/04 04:46:21;;;;;;;42.35;16.58;;;3.40;99.90;;;;;;6129596;23;20330;-79
2023/01/04 04:48:49;;;;;;;38.53;14.90;;;3.50;99.90;;;;;;6153697;23;20021;-79
2023/01/04 04:51:17;;;;;;;42.17;15.02;;;3.50;99.90;;;;;;6128434;23;20029;-79
2023/01/04 04:53:44;;;;;;;39.60;16.45;;;3.50;99.90;;;;;;6131157;23;20018;-79
2023/01/04 04:56:12;;;;;;;40.33;15.00;;;3.40;99.90;;;;;;6154584;23;20028;-79
2023/01/04 04:58:40;;;;;;;43.67;14.85;;;2.00;99.90;;;;;;6130121;23;20108;-79
2023/01/04 05:01:10;;;;;;;40.13;15.68;;;3.30;99.90;;;;;;6130813;23;20117;-79
2023/01/04 05:03:41;;;;;;;41.58;14.73;;;3.30;99.90;;;;;;6129088;23;20029;-79
2023/01/04 05:06:10;;;;;;;38.08;14.40;;;3.30;99.90;;;;;;6126361;23;20052;-79
2023/01/04 05:08:38;;;;;;;41.72;14.60;;;3.90;99.90;;;;;;6128480;23;20026;-79
2023/01/04 05:11:08;;;;;;;37.15;13.82;;;3.30;99.90;;;;;;6154963;23;20018;-79
2023/01/04 05:13:35;;;;;;;36.88;12.68;;;3.30;99.90;;;;;;6154873;23;20041;-79
2023/01/04 05:16:08;;;;;;;42.88;14.95;;;3.30;99.90;;;;;;6153977;23;20017;-79
2023/01/04 05:18:36;;;;;;;33.83;13.27;;;3.20;99.90;;;;;;6130250;23;20344;-79
2023/01/04 05:21:04;;;;;;;43.78;15.05;;;3.20;99.90;;;;;;6153307;23;20013;-79
2023/01/04 05:23:31;;;;;;;37.08;15.15;;;3.20;99.90;;;;;;6129489;23;20048;-79
2023/01/04 05:26:00;;;;;;;47.47;15.25;;;3.10;99.90;;;;;;6129980;23;20021;-79
2023/01/04 05:28:28;;;;;;;38.03;13.85;;;3.10;99.90;;;;;;6130208;23;20026;-80
2023/01/04 05:30:56;;;;;;;38.25;13.85;;;3.10;99.90;;;;;;6129711;23;20052;-79
2023/01/04 05:33:29;;;;;;;43.22;15.88;;;3.10;99.90;;;;;;6154619;23;20025;-79
2023/01/04 05:35:58;;;;;;;41.55;14.80;;;3.00;99.90;;;;;;6151777;23;20057;-79
2023/01/04 05:38:27;;;;;;;42.88;14.70;;;2.90;99.90;;;;;;6118896;23;20366;-80
2023/01/04 05:40:56;;;;;;;39.72;14.55;;;3.00;99.90;;;;;;6093100;23;20022;-78
2023/01/04 05:43:26;;;;;;;43.33;15.07;;;2.90;99.90;;;;;;6117055;23;20049;-79
2023/01/04 05:45:55;;;;;;;49.03;15.82;;;2.80;99.90;;;;;;6092654;23;20026;-79
2023/01/04 05:48:26;;;;;;;48.10;15.15;;;2.70;99.90;;;;;;6070463;23;20026;-79
2023/01/04 05:50:54;;;;;;;39.20;14.32;;;2.50;99.90;;;;;;6120145;23;20132;-79
2023/01/04 05:53:22;;;;;;;39.63;15.90;;;2.50;99.90;;;;;;6121682;23;20030;-79
2023/01/04 05:55:49;;;;;;;43.88;16.30;;;2.80;99.90;;;;;;6094377;23;20427;-79
2023/01/04 05:58:17;;;;;;;43.78;14.18;;;2.90;99.90;;;;;;6070097;23;20062;-78
2023/01/04 06:00:44;;;;;;;41.88;14.90;;;2.80;99.90;;;;;;6117173;23;20417;-78
2023/01/04 06:03:12;;;;;;;41.38;14.32;;;2.10;99.90;;;;;;6070746;23;20553;-78
2023/01/04 06:05:40;;;;;;;39.95;14.65;;;2.80;99.90;;;;;;6098139;23;20398;-78
2023/01/04 06:08:08;;;;;;;51.50;17.88;;;2.00;99.90;;;;;;6123023;23;20018;-79
2023/01/04 06:10:35;;;;;;;41.58;16.40;;;2.80;99.90;;;;;;6150484;23;20021;-79
2023/01/04 06:13:04;;;;;;;50.95;19.25;;;2.70;99.90;;;;;;6154114;23;20433;-79
2023/01/04 06:15:32;;;;;;;49.60;19.08;;;2.70;99.90;;;;;;6130854;23;20021;-79
2023/01/04 06:18:09;;;;;;;53.50;18.38;;;2.70;99.90;;;;;;6154100;23;20036;-79
2023/01/04 06:20:41;;;;;;;52.55;19.42;;;2.60;99.90;;;;;;6128447;23;20053;-79
2023/01/04 06:23:08;;;;;;;47.53;18.58;;;2.50;99.90;;;;;;6154046;23;20021;-78
2023/01/04 06:25:37;;;;;;;47.20;17.63;;;2.30;99.90;;;;;;6129357;23;20468;-78
2023/01/04 06:28:04;;;;;;;53.47;19.73;;;2.70;99.90;;;;;;6153866;23;20097;-78
2023/01/04 06:30:32;;;;;;;55.30;20.00;;;2.60;99.90;;;;;;6129493;23;20021;-79
2023/01/04 06:32:59;;;;;;;52.55;19.25;;;2.60;99.90;;;;;;6130503;23;20052;-78
2023/01/04 06:35:27;;;;;;;52.65;19.83;;;2.50;99.90;;;;;;6153538;23;20105;-80
2023/01/04 06:38:00;;;;;;;56.63;21.35;;;2.60;99.90;;;;;;6124635;23;20056;-79
2023/01/04 06:40:28;;;;;;;64.35;21.27;;;2.50;99.90;;;;;;6149275;23;20021;-79
2023/01/04 06:42:55;;;;;;;63.85;24.05;;;2.60;99.90;;;;;;6149196;23;20098;-79
2023/01/04 06:45:23;;;;;;;61.35;23.42;;;2.50;99.90;;;;;;6148676;23;20045;-79
2023/01/04 06:47:51;;;;;;;74.55;24.60;;;2.60;99.90;;;;;;6149926;23;20385;-79
2023/01/04 06:50:18;;;;;;;70.47;25.95;;;2.60;99.90;;;;;;6149809;23;20579;-78
2023/01/04 06:52:46;;;;;;;74.03;28.25;;;1.90;99.90;;;;;;6125605;23;20393;-78
2023/01/04 06:55:14;;;;;;;92.97;31.02;;;2.50;99.90;;;;;;6124861;23;20104;-79
2023/01/04 06:57:41;;;;;;;83.68;29.77;;;2.10;99.90;;;;;;6125190;23;20026;-79
2023/01/04 07:00:10;;;;;;;90.90;29.75;;;2.50;99.90;;;;;;6123499;23;20021;-79
2023/01/04 07:02:37;;;;;;;89.75;31.40;;;2.50;99.90;;;;;;6148405;23;20441;-79
2023/01/04 07:05:25;;;;;;;100.55;35.47;;;2.50;99.90;;;;;;6155022;23;20478;-79
2023/01/04 07:07:52;;;;;;;99.68;37.95;;;2.50;99.90;;;;;;6154764;23;20021;-79
2023/01/04 07:10:20;;;;;;;103.63;36.63;;;2.30;99.90;;;;;;6130535;23;20397;-79
2023/01/04 07:12:48;;;;;;;103.25;36.08;;;2.50;99.90;;;;;;6129286;23;20052;-79
2023/01/04 07:15:18;;;;;;;96.28;33.10;;;2.80;99.90;;;;;;6129848;23;20026;-79
2023/01/04 07:18:09;;;;;;;98.95;36.08;;;2.40;99.90;;;;;;6136653;23;20017;-79
2023/01/04 07:20:38;;;;;;;117.20;41.88;;;2.50;99.90;;;;;;6157183;23;20013;-79
2023/01/04 07:23:07;;;;;;;156.68;56.33;;;2.60;99.90;;;;;;6165758;23;20044;-79
2023/01/04 07:25:34;;;;;;;155.73;55.95;;;2.60;99.90;;;;;;6140984;23;20021;-79
2023/01/04 07:28:04;;;;;;;131.93;46.78;;;2.70;99.90;;;;;;6164411;23;20013;-80
2023/01/04 07:30:32;;;;;;;105.10;40.38;;;2.80;99.90;;;;;;6140474;23;20025;-80
2023/01/04 07:33:00;;;;;;;111.35;40.67;;;2.30;99.90;;;;;;6159386;23;20024;-80
2023/01/04 07:35:32;;;;;;;128.65;48.60;;;2.80;99.90;;;;;;6152786;23;20413;-80
2023/01/04 07:37:59;;;;;;;125.95;46.72;;;3.10;99.90;;;;;;6128788;23;20026;-80
2023/01/04 07:40:27;;;;;;;138.43;48.15;;;2.90;99.90;;;;;;6127342;23;20021;-79
2023/01/04 07:42:58;;;;;;;130.90;45.88;;;2.80;99.90;;;;;;6126854;23;20018;-79
2023/01/04 07:45:26;;;;;;;117.40;42.63;;;3.10;99.90;;;;;;6152055;23;20022;-79
2023/01/04 07:47:57;;;;;;;104.40;34.40;;;3.00;99.90;;;;;;6127693;23;20353;-79
2023/01/04 07:50:25;;;;;;;93.03;32.70;;;1.90;99.90;;;;;;6126152;23;20036;-79
2023/01/04 07:52:53;;;;;;;105.53;40.58;;;3.20;99.90;;;;;;6129814;23;20088;-79
2023/01/04 07:55:20;;;;;;;96.18;33.90;;;3.30;99.90;;;;;;6158907;23;20506;-79
2023/01/04 07:57:48;;;;;;;76.32;26.92;;;3.30;99.90;;;;;;6138025;23;20029;-79
2023/01/04 08:00:16;;;;;;;78.88;26.02;;;4.50;99.90;;;;;;6169174;23;20017;-79
2023/01/04 08:03:05;;;;;;;70.80;24.83;;;3.40;99.90;;;;;;6155377;23;20044;-79
2023/01/04 08:42:24;;;;;;;112.13;33.28;;;4.20;99.90;;;;;;6239901;23;20031;-80
2023/01/04 08:45:02;;;;;;;126.00;39.55;;;4.20;99.90;;;;;;6193206;23;20084;-80
2023/01/04 08:47:32;;;;;;;125.75;41.42;;;4.20;99.90;;;;;;6239746;23;20039;-80
2023/01/04 08:50:00;;;;;;;121.65;37.72;;;4.00;99.90;;;;;;6234995;23;20020;-80
2023/01/04 08:52:36;;;;;;;109.75;35.15;;;4.40;99.90;;;;;;6231393;23;20032;-80
2023/01/04 08:55:04;;;;;;;108.25;34.42;;;4.40;99.90;;;;;;6203174;23;20095;-80
2023/01/04 08:57:38;;;;;;;104.85;31.13;;;4.40;99.90;;;;;;6224275;23;20075;-80
2023/01/04 09:00:06;;;;;;;99.95;33.38;;;4.50;99.90;;;;;;6192105;23;20180;-78
2023/01/04 09:02:34;;;;;;;103.75;34.70;;;4.60;99.90;;;;;;6188571;23;20024;-79
2023/01/04 09:05:02;;;;;;;97.20;33.25;;;4.70;99.90;;;;;;6187892;23;20023;-80
2023/01/04 09:07:31;;;;;;;99.15;34.35;;;4.70;99.90;;;;;;6215748;23;20032;-80
2023/01/04 09:09:59;;;;;;;99.47;33.60;;;4.80;99.90;;;;;;6192383;23;20352;-80
2023/01/04 09:12:27;;;;;;;96.68;33.97;;;4.80;99.90;;;;;;6217268;23;20040;-80
2023/01/04 09:14:54;;;;;;;80.10;32.13;;;4.80;99.90;;;;;;6216643;23;20074;-80
2023/01/04 09:17:23;;;;;;;82.47;32.03;;;5.30;99.90;;;;;;6213861;23;20021;-80
2023/01/04 09:19:50;;;;;;;85.43;31.15;;;4.20;99.90;;;;;;6188401;23;20028;-80
2023/01/04 09:22:17;;;;;;;70.43;27.67;;;5.00;99.90;;;;;;6187111;23;20071;-80
2023/01/04 09:24:45;;;;;;;61.83;23.55;;;5.00;99.90;;;;;;6211501;23;20023;-80
2023/01/04 09:27:12;;;;;;;54.17;21.48;;;5.20;99.90;;;;;;6161961;23;20027;-80
2023/01/04 09:29:40;;;;;;;47.53;20.40;;;5.20;99.90;;;;;;6212319;23;20024;-80
2023/01/04 09:32:09;;;;;;;41.63;18.88;;;5.40;99.90;;;;;;6217836;23;20072;-80
2023/01/04 09:34:44;;;;;;;36.13;15.73;;;5.40;99.90;;;;;;6191843;23;20096;-79
2023/01/04 09:37:12;;;;;;;34.58;16.67;;;6.20;99.90;;;;;;6185799;23;20095;-79
2023/01/04 09:39:39;;;;;;;35.75;15.23;;;5.60;99.90;;;;;;6211140;23;20020;-79
2023/01/04 09:42:25;;;;;;;32.38;15.68;;;5.60;99.90;;;;;;6184446;23;20025;-79
2023/01/04 09:45:13;;;;;;;30.95;13.45;;;5.70;99.90;;;;;;6210028;23;20356;-79
2023/01/04 09:48:10;;;;;;;25.33;11.63;;;5.70;99.90;;;;;;6212762;23;20017;-79
2023/01/04 09:51:03;;;;;;;26.50;12.63;;;5.90;99.90;;;;;;6208004;23;20040;-79
2023/01/04 09:53:42;;;;;;;39.55;18.48;;;6.00;99.90;;;;;;6191711;23;20357;-79
2023/01/04 09:56:32;;;;;;;35.85;17.27;;;5.50;99.90;;;;;;6210734;23;20020;-79
2023/01/04 09:59:05;;;;;;;31.65;14.50;;;6.10;99.90;;;;;;6214301;23;20079;-79
2023/01/04 10:01:50;;;;;;;28.83;14.57;;;6.10;99.90;;;;;;6216676;23;20016;-79
2023/01/04 10:04:46;;;;;;;29.85;14.52;;;6.30;99.90;;;;;;6188142;23;20465;-79
2023/01/04 10:07:31;;;;;;;28.80;14.90;;;6.40;99.90;;;;;;6211954;23;20051;-79
2023/01/04 10:09:59;;;;;;;29.95;14.75;;;6.50;99.90;;;;;;6190481;23;20016;-79
2023/01/04 10:13:00;;;;;;;26.95;14.75;;;6.50;99.90;;;;;;6189552;23;20044;-79
2023/01/04 10:15:42;;;;;;;28.58;13.25;;;6.60;99.90;;;;;;6215436;23;20352;-79
2023/01/04 10:18:22;;;;;;;27.27;13.75;;;6.70;99.90;;;;;;6189624;23;20021;-79
2023/01/04 10:21:28;;;;;;;26.38;13.68;;;6.80;99.90;;;;;;6196303;23;20017;-79
2023/01/04 10:24:37;;;;;;;28.08;14.18;;;6.90;99.90;;;;;;6221321;23;20092;-79
2023/01/04 10:27:26;;;;;;;30.48;13.23;;;7.10;99.90;;;;;;6193436;23;20432;-79
2023/01/04 10:30:17;;;;;;;24.48;11.32;;;7.20;99.90;;;;;;6221105;23;20923;-79
2023/01/04 10:32:48;;;;;;;21.13;10.13;;;7.20;99.90;;;;;;6199258;23;20043;-79
2023/01/04 10:35:24;;;;;;;25.83;10.25;;;7.20;99.90;;;;;;6171228;23;20024;-79
2023/01/04 10:37:56;;;;;;;21.88;9.52;;;7.40;99.90;;;;;;6214462;23;20083;-79
2023/01/04 10:40:26;;;;;;;21.67;10.40;;;7.40;99.90;;;;;;6211377;23;20494;-79
2023/01/04 10:43:01;;;;;;;23.20;9.77;;;7.40;99.90;;;;;;6216300;23;20029;-79
2023/01/04 10:46:09;;;;;;;21.17;8.38;;;7.50;99.90;;;;;;6192599;23;20047;-79
2023/01/04 10:49:03;;;;;;;22.90;10.18;;;7.60;99.90;;;;;;6217416;23;20013;-79
2023/01/04 10:51:46;;;;;;;23.83;11.20;;;7.70;99.90;;;;;;6220180;23;20108;-79
2023/01/04 10:54:36;;;;;;;34.78;14.95;;;7.70;99.90;;;;;;6192957;23;20024;-79
2023/01/04 10:57:10;;;;;;;31.83;15.85;;;7.60;99.90;;;;;;6219243;23;20037;-79
2023/01/04 10:59:42;;;;;;;29.60;16.08;;;6.40;99.90;;;;;;6191125;23;20408;-79
2023/01/04 11:02:37;;;;;;;31.38;15.00;;;7.50;99.90;;;;;;6220923;23;20016;-79
2023/01/04 11:05:22;;;;;;;33.42;15.60;;;7.70;99.90;;;;;;6215551;23;20024;-79
2023/01/04 11:07:49;;;;;;;31.60;15.70;;;7.40;99.90;;;;;;6190763;23;20021;-79
2023/01/04 11:10:30;;;;;;;31.17;15.23;;;7.90;99.90;;;;;;6216170;23;20027;-79
2023/01/04 11:12:57;;;;;;;38.83;17.38;;;8.00;99.90;;;;;;6214800;23;20141;-79
2023/01/04 11:15:29;;;;;;;35.08;17.60;;;7.90;99.90;;;;;;6195871;23;20056;-79
2023/01/04 11:18:03;;;;;;;41.47;16.77;;;7.90;99.90;;;;;;6225846;23;20051;-79
2023/01/04 11:20:31;;;;;;;33.45;16.42;;;8.20;99.90;;;;;;6173892;23;20067;-79
2023/01/04 11:23:16;;;;;;;30.77;15.60;;;7.80;99.90;;;;;;6223891;23;20019;-79
2023/01/04 11:25:59;;;;;;;34.75;16.77;;;7.80;99.90;;;;;;6221008;23;20039;-79
2023/01/04 11:28:34;;;;;;;32.42;15.77;;;7.80;99.90;;;;;;6227860;23;20023;-79
2023/01/04 11:31:11;;;;;;;;;;;7.90;99.90;;;;;;6195554;23;20020;-79
2023/01/04 11:34:02;;;;;;;31.25;14.88;;;7.70;99.90;;;;;;6202622;23;19922;-79
2023/01/04 11:36:30;;;;;;;35.10;15.80;;;7.80;99.90;;;;;;6201199;23;20020;-79
2023/01/04 11:38:59;;;;;;;33.20;15.85;;;7.90;99.90;;;;;;6219572;23;20466;-80
2023/01/04 11:41:27;;;;;;;34.83;15.90;;;8.00;99.90;;;;;;6194067;23;20046;-80
2023/01/04 11:44:03;;;;;;;34.92;15.73;;;7.80;99.90;;;;;;6197860;23;20106;-80
2023/01/04 11:46:33;;;;;;;31.42;14.45;;;7.90;99.90;;;;;;6192760;23;20016;-80
2023/01/04 11:49:00;;;;;;;32.88;14.80;;;7.90;99.90;;;;;;6220883;23;20047;-80
2023/01/04 11:51:27;;;;;;;33.45;15.27;;;8.00;99.90;;;;;;6223123;23;20031;-80
2023/01/04 11:54:16;;;;;;;30.73;14.50;;;8.00;99.90;;;;;;6161469;23;20111;-80
2023/01/04 11:57:09;;;;;;;32.33;14.65;;;8.00;99.90;;;;;;6164436;23;20360;-80
2023/01/04 11:59:38;;;;;;;34.92;15.50;;;8.10;99.90;;;;;;6158843;23;20111;-80
2023/01/04 12:02:19;;;;;;;29.85;15.00;;;8.10;99.90;;;;;;6159935;23;20048;-80
2023/01/04 12:05:32;;;;;;;26.10;13.27;;;8.10;99.90;;;;;;6163585;23;20191;-80
2023/01/04 12:07:59;;;;;;;;;;;8.10;99.90;;;;;;6177423;23;20071;-80
2023/01/04 12:10:27;;;;;;;23.38;11.50;;;8.10;99.90;;;;;;6182910;23;20016;-80
2023/01/04 12:13:00;;;;;;;28.67;12.25;;;8.10;99.90;;;;;;6158797;23;20020;-80
2023/01/04 12:15:43;;;;;;;23.58;11.75;;;8.20;99.90;;;;;;6188066;23;20368;-80
2023/01/04 12:18:35;;;;;;;25.35;11.23;;;8.20;99.90;;;;;;6161317;23;20024;-80
2023/01/04 12:21:03;;;;;;;23.23;11.20;;;8.30;99.90;;;;;;6168391;23;20013;-80
2023/01/04 12:23:32;;;;;;;21.10;10.10;;;8.20;99.90;;;;;;6188197;23;20016;-80
2023/01/04 12:26:01;;;;;;;20.92;10.35;;;8.20;99.90;;;;;;6222037;23;20395;-80
2023/01/04 12:28:41;;;;;;;26.83;11.75;;;8.20;99.90;;;;;;6190075;23;20104;-80
2023/01/04 12:31:18;;;;;;;20.77;9.80;;;8.20;99.90;;;;;;6192219;23;20031;-80
2023/01/04 12:34:17;;;;;;;23.05;10.25;;;8.30;99.90;;;;;;6216337;23;20091;-80
2023/01/04 12:36:47;;;;;;;21.77;10.73;;;8.20;99.90;;;;;;6121106;23;20025;-79
2023/01/04 12:39:15;;;;;;;20.42;10.00;;;8.20;99.90;;;;;;6186583;23;20028;-80
2023/01/04 12:41:59;;;;;;;23.13;10.30;;;8.30;99.90;;;;;;6186528;23;20392;-80
2023/01/04 12:44:35;;;;;;;19.92;9.70;;;8.30;99.90;;;;;;6217112;23;20395;-80
2023/01/04 12:50:18;;;;;;;15.40;8.25;;;8.30;99.90;;;;;;6216560;23;20071;-80
2023/01/04 12:52:51;;;;;;;16.23;8.38;;;8.30;99.90;;;;;;6197672;23;20032;-80
2023/01/04 12:55:42;;;;;;;20.52;9.85;;;8.30;99.90;;;;;;6200654;23;20036;-80
2023/01/04 12:58:28;;;;;;;31.48;17.27;;;8.30;99.90;;;;;;6190842;23;20024;-80
